createdAt,value
2018-07-02T00:01:29.716Z,97868.94
2018-07-02T00:03:58.467Z,97868.65
2018-07-02T00:06:39.404Z,97863.62
2018-07-02T00:09:08.356Z,97856.14
2018-07-02T00:11:37.460Z,97863.53
2018-07-02T00:14:06.439Z,97862.83
2018-07-02T00:16:35.591Z,97853.91
2018-07-02T00:19:04.500Z,97848.72
2018-07-02T00:21:33.777Z,97848.72
2018-07-02T00:24:02.588Z,97842.47
2018-07-02T00:26:32.029Z,97842.44
2018-07-02T00:29:00.695Z,97849.89
2018-07-02T00:31:29.875Z,97848.59
2018-07-02T00:33:59.393Z,97840.31
2018-07-02T00:36:28.821Z,97840.78
2018-07-02T00:38:57.705Z,97836.78
2018-07-02T00:41:26.521Z,97842.95
2018-07-02T00:43:55.274Z,97835.81
2018-07-02T00:46:24.084Z,97838.42
2018-07-02T00:48:52.749Z,97844.81
2018-07-02T00:51:21.334Z,97842.38
2018-07-02T00:53:50.165Z,97836.38
2018-07-02T00:56:18.725Z,97837.94
2018-07-02T00:58:47.654Z,97832.83
2018-07-02T01:01:16.860Z,97835.91
2018-07-02T01:03:45.691Z,97833.78
2018-07-02T01:06:15.274Z,97836.77
2018-07-02T01:08:44.424Z,97830.44
2018-07-02T01:11:13.615Z,97831.56
2018-07-02T01:13:42.355Z,97830.33
2018-07-02T01:16:11.143Z,97835.14
2018-07-02T01:18:39.770Z,97830.59
2018-07-02T01:21:08.631Z,97829.23
2018-07-02T01:23:37.760Z,97825.36
2018-07-02T01:26:07.166Z,97828.01
2018-07-02T01:28:35.876Z,97832.12
2018-07-02T01:31:04.685Z,97829.73
2018-07-02T01:33:33.316Z,97834.33
2018-07-02T01:36:02.289Z,97831.89
2018-07-02T01:38:31.461Z,97834.28
2018-07-02T01:41:01.481Z,97834.83
2018-07-02T01:43:30.326Z,97831.80
2018-07-02T01:46:00.103Z,97840.55
2018-07-02T01:48:29.699Z,97835.30
2018-07-02T01:50:58.540Z,97834.74
2018-07-02T01:53:28.020Z,97837.27
2018-07-02T01:55:56.688Z,97842.37
2018-07-02T01:58:26.116Z,97843.48
2018-07-02T02:00:55.313Z,97839.53
2018-07-02T02:03:24.040Z,97849.86
2018-07-02T02:05:52.735Z,97841.48
2018-07-02T02:08:21.510Z,97837.25
2018-07-02T02:10:50.144Z,97849.47
2018-07-02T02:13:19.275Z,97844.55
2018-07-02T02:15:48.141Z,97850.45
2018-07-02T02:18:17.654Z,97841.85
2018-07-02T02:20:46.428Z,97854.28
2018-07-02T02:23:15.220Z,97857.97
2018-07-02T02:25:44.106Z,97844.69
2018-07-02T02:28:12.796Z,97846.84
2018-07-02T02:30:42.665Z,97846.03
2018-07-02T02:33:11.526Z,97847.27
2018-07-02T02:35:40.380Z,97845.41
2018-07-02T02:38:09.220Z,97846.02
2018-07-02T02:40:38.541Z,97843.94
2018-07-02T02:43:07.259Z,97846.64
2018-07-02T02:45:35.956Z,97851.47
2018-07-02T02:48:05.529Z,97845.62
2018-07-02T02:50:34.831Z,97843.64
2018-07-02T02:53:03.716Z,97846.11
2018-07-02T02:55:32.298Z,97845.13
2018-07-02T02:58:01.471Z,97854.05
2018-07-02T03:00:30.281Z,97846.63
2018-07-02T03:02:59.142Z,97846.31
2018-07-02T03:05:28.126Z,97841.89
2018-07-02T03:07:56.879Z,97842.99
2018-07-02T03:10:25.710Z,97842.71
2018-07-02T03:12:54.389Z,97839.61
2018-07-02T03:15:23.035Z,97842.41
2018-07-02T03:17:51.681Z,97837.36
2018-07-02T03:20:20.613Z,97844.47
2018-07-02T03:22:49.155Z,97842.54
2018-07-02T03:25:17.922Z,97839.80
2018-07-02T03:27:46.840Z,97840.10
2018-07-02T03:30:15.481Z,97840.64
2018-07-02T03:32:44.394Z,97850.37
2018-07-02T03:35:13.057Z,97842.70
2018-07-02T03:37:41.754Z,97844.55
2018-07-02T03:40:11.361Z,97843.34
2018-07-02T03:42:40.221Z,97850.51
2018-07-02T03:45:08.995Z,97849.80
2018-07-02T03:47:37.689Z,97847.42
2018-07-02T03:50:06.445Z,97853.73
2018-07-02T03:52:35.150Z,97851.91
2018-07-02T03:55:04.766Z,97848.36
2018-07-02T03:57:33.656Z,97857.09
2018-07-02T04:00:02.366Z,97848.74
2018-07-02T04:02:31.131Z,97847.02
2018-07-02T04:04:59.838Z,97853.19
2018-07-02T04:07:28.615Z,97865.80
2018-07-02T04:09:57.521Z,97860.02
2018-07-02T04:12:26.363Z,97867.83
2018-07-02T04:14:55.286Z,97863.78
2018-07-02T04:17:23.970Z,97864.05
2018-07-02T04:19:52.664Z,97868.11
2018-07-02T04:22:21.976Z,97862.90
2018-07-02T04:24:50.689Z,97863.40
2018-07-02T04:27:19.468Z,97867.44
2018-07-02T04:29:48.171Z,97864.15
2018-07-02T04:32:16.982Z,97862.05
2018-07-02T04:34:45.661Z,97870.78
2018-07-02T04:37:14.430Z,97868.20
2018-07-02T04:39:43.245Z,97864.86
2018-07-02T04:42:12.217Z,97877.48
2018-07-02T04:44:41.312Z,97878.55
2018-07-02T04:47:10.901Z,97881.42
2018-07-02T04:49:39.831Z,97873.28
2018-07-02T04:52:09.276Z,97868.85
2018-07-02T04:54:38.217Z,97872.97
2018-07-02T04:57:07.747Z,97867.58
2018-07-02T04:59:37.319Z,97866.94
2018-07-02T05:02:06.153Z,97859.63
2018-07-02T05:04:35.065Z,97869.50
2018-07-02T05:07:04.031Z,97867.36
2018-07-02T05:09:33.550Z,97859.20
2018-07-02T05:12:02.481Z,97860.11
2018-07-02T05:14:32.111Z,97863.94
2018-07-02T05:17:01.182Z,97853.00
2018-07-02T05:19:29.862Z,97856.16
2018-07-02T05:21:58.677Z,97853.48
2018-07-02T05:24:28.376Z,97853.28
2018-07-02T05:26:57.166Z,97855.50
2018-07-02T05:29:26.718Z,97861.88
2018-07-02T05:31:55.531Z,97863.29
2018-07-02T05:34:25.076Z,97866.87
2018-07-02T05:36:53.761Z,97861.33
2018-07-02T05:39:23.288Z,97865.62
2018-07-02T05:41:52.147Z,97863.58
2018-07-02T05:44:20.921Z,97854.98
2018-07-02T05:46:49.781Z,97862.02
2018-07-02T05:49:19.488Z,97865.77
2018-07-02T05:51:48.912Z,97871.53
2018-07-02T05:54:17.737Z,97870.97
2018-07-02T05:56:46.998Z,97867.67
2018-07-02T05:59:15.781Z,97871.49
2018-07-02T06:01:44.416Z,97871.63
2018-07-02T06:04:13.571Z,97874.95
2018-07-02T06:06:42.740Z,97876.73
2018-07-02T06:09:12.678Z,97883.86
2018-07-02T06:11:41.329Z,97882.08
2018-07-02T06:14:11.078Z,97884.14
2018-07-02T06:16:40.594Z,97881.87
2018-07-02T06:19:09.835Z,97887.30
2018-07-02T06:21:39.273Z,97891.30
2018-07-02T06:24:08.017Z,97882.05
2018-07-02T06:26:36.778Z,97885.72
2018-07-02T06:29:05.569Z,97884.47
2018-07-02T06:31:34.188Z,97888.16
2018-07-02T06:34:03.122Z,97887.19
2018-07-02T06:36:31.855Z,97885.48
2018-07-02T06:39:00.697Z,97889.78
2018-07-02T06:41:29.986Z,97882.09
2018-07-02T06:43:58.772Z,97886.27
2018-07-02T06:46:27.498Z,97887.09
2018-07-02T06:48:56.166Z,97882.56
2018-07-02T06:51:25.316Z,97893.60
2018-07-02T06:53:54.095Z,97899.27
2018-07-02T06:56:23.091Z,97897.45
2018-07-02T06:58:51.953Z,97894.77
2018-07-02T07:01:20.833Z,97900.17
2018-07-02T07:03:49.667Z,97898.66
2018-07-02T07:06:18.413Z,97892.27
2018-07-02T07:08:47.362Z,97898.02
2018-07-02T07:11:16.333Z,97898.83
2018-07-02T07:13:45.573Z,97901.70
2018-07-02T07:16:14.305Z,97901.25
2018-07-02T07:18:44.456Z,97904.05
2018-07-02T07:21:13.197Z,97900.36
2018-07-02T07:23:43.021Z,97899.22
2018-07-02T07:26:11.707Z,97900.13
2018-07-02T07:28:40.497Z,97895.91
2018-07-02T07:31:09.465Z,97898.43
2018-07-02T07:33:38.908Z,97901.86
2018-07-02T07:36:07.899Z,97902.36
2018-07-02T07:38:36.768Z,97891.61
2018-07-02T07:41:05.676Z,97899.86
2018-07-02T07:43:34.603Z,97902.91
2018-07-02T07:46:03.793Z,97905.41
2018-07-02T07:48:33.234Z,97905.56
2018-07-02T07:51:01.951Z,97899.09
2018-07-02T07:53:31.222Z,97894.28
2018-07-02T07:55:59.912Z,97890.91
2018-07-02T07:58:28.678Z,97890.75
2018-07-02T08:00:57.333Z,97885.77
2018-07-02T08:03:26.193Z,97891.61
2018-07-02T08:05:54.939Z,97891.16
2018-07-02T08:08:24.001Z,97890.83
2018-07-02T08:10:52.857Z,97889.73
2018-07-02T08:13:21.478Z,97887.04
2018-07-02T08:15:50.463Z,97889.73
2018-07-02T08:18:19.337Z,97882.83
2018-07-02T08:20:48.122Z,97868.81
2018-07-02T08:23:17.233Z,97868.97
2018-07-02T08:25:45.984Z,97868.65
2018-07-02T08:28:14.728Z,97862.88
2018-07-02T08:30:43.664Z,97871.12
2018-07-02T08:33:13.267Z,97860.13
2018-07-02T08:35:42.523Z,97856.61
2018-07-02T08:38:12.131Z,97855.84
2018-07-02T08:40:40.892Z,97854.34
2018-07-02T08:43:10.044Z,97856.12
2018-07-02T08:45:39.291Z,97853.84
2018-07-02T08:48:08.785Z,97853.19
2018-07-02T08:50:37.446Z,97858.95
2018-07-02T08:53:06.467Z,97855.83
2018-07-02T08:55:35.266Z,97851.19
2018-07-02T08:58:03.949Z,97847.87
2018-07-02T09:00:32.799Z,97851.48
2018-07-02T09:03:02.196Z,97851.61
2018-07-02T09:05:30.999Z,97857.00
2018-07-02T09:07:59.809Z,97851.97
2018-07-02T09:10:28.657Z,97852.45
2018-07-02T09:12:57.690Z,97856.41
2018-07-02T09:15:27.208Z,97856.15
2018-07-02T09:17:55.958Z,97855.22
2018-07-02T09:20:25.342Z,97862.36
2018-07-02T09:22:53.961Z,97856.30
2018-07-02T09:25:22.703Z,97851.20
2018-07-02T09:27:51.370Z,97846.84
2018-07-02T09:30:20.472Z,97852.22
2018-07-02T09:32:49.553Z,97862.02
2018-07-02T09:35:18.589Z,97871.08
2018-07-02T09:37:47.213Z,97860.36
2018-07-02T09:40:16.251Z,97848.83
2018-07-02T09:42:44.838Z,97847.82
2018-07-02T09:45:14.211Z,97852.89
2018-07-02T09:47:43.667Z,97859.09
2018-07-02T09:50:12.308Z,97866.19
2018-07-02T09:52:41.207Z,97858.35
2018-07-02T09:55:10.729Z,97856.05
2018-07-02T09:57:39.606Z,97854.31
2018-07-02T10:00:08.276Z,97854.33
2018-07-02T10:02:37.532Z,97857.75
2018-07-02T10:05:06.576Z,97860.47
2018-07-02T10:07:35.433Z,97857.48
2018-07-02T10:10:04.759Z,97854.38
2018-07-02T10:12:34.301Z,97849.25
2018-07-02T10:15:03.544Z,97857.63
2018-07-02T10:17:32.279Z,97853.61
2018-07-02T10:20:01.060Z,97854.42
2018-07-02T10:22:29.875Z,97851.50
2018-07-02T10:24:59.325Z,97850.95
2018-07-02T10:27:27.871Z,97849.09
2018-07-02T10:29:56.961Z,97845.98
2018-07-02T10:32:26.203Z,97846.09
2018-07-02T10:34:55.506Z,97842.30
2018-07-02T10:37:24.254Z,97848.43
2018-07-02T10:39:54.048Z,97853.24
2018-07-02T10:42:22.902Z,97851.16
2018-07-02T10:44:52.151Z,97848.82
2018-07-02T10:47:21.063Z,97846.88
2018-07-02T10:49:49.992Z,97857.11
2018-07-02T10:52:18.880Z,97854.64
2018-07-02T10:54:48.362Z,97837.59
2018-07-02T10:57:17.422Z,97844.49
2018-07-02T10:59:46.148Z,97849.30
2018-07-02T11:02:15.751Z,97843.48
2018-07-02T11:04:44.607Z,97844.67
2018-07-02T11:07:13.383Z,97842.38
2018-07-02T11:09:42.607Z,97840.21
2018-07-02T11:12:11.700Z,97842.83
2018-07-02T11:14:40.792Z,97838.52
2018-07-02T11:17:09.578Z,97830.59
2018-07-02T11:19:38.429Z,97827.48
2018-07-02T11:22:07.548Z,97829.87
2018-07-02T11:24:36.873Z,97839.66
2018-07-02T11:27:05.718Z,97829.27
2018-07-02T11:29:34.666Z,97836.55
2018-07-02T11:32:03.582Z,97827.52
2018-07-02T11:34:32.171Z,97831.20
2018-07-02T11:37:01.116Z,97826.20
2018-07-02T11:39:30.442Z,97821.72
2018-07-02T11:41:59.372Z,97832.58
2018-07-02T11:44:28.622Z,97822.44
2018-07-02T11:46:58.116Z,97823.63
2018-07-02T11:49:26.867Z,97830.91
2018-07-02T11:51:55.688Z,97826.73
2018-07-02T11:54:24.619Z,97827.70
2018-07-02T11:56:53.733Z,97831.61
2018-07-02T11:59:23.283Z,97828.66
2018-07-02T12:01:52.250Z,97830.03
2018-07-02T12:04:21.333Z,97836.66
2018-07-02T12:06:50.314Z,97833.89
2018-07-02T12:09:19.175Z,97830.67
2018-07-02T12:11:48.733Z,97831.25
2018-07-02T12:14:17.568Z,97835.40
2018-07-02T12:16:46.568Z,97842.52
2018-07-02T12:19:15.773Z,97838.33
2018-07-02T12:21:45.084Z,97833.91
2018-07-02T12:24:14.382Z,97828.02
2018-07-02T12:26:42.923Z,97831.17
2018-07-02T12:29:11.733Z,97836.37
2018-07-02T12:31:40.958Z,97832.81
2018-07-02T12:34:09.785Z,97827.91
2018-07-02T12:36:38.490Z,97828.66
2018-07-02T12:39:11.799Z,97823.22
2018-07-02T12:41:41.653Z,97829.91
2018-07-02T12:44:12.184Z,97830.60
2018-07-02T12:46:41.383Z,97827.91
2018-07-02T12:49:10.809Z,97826.88
2018-07-02T12:51:39.762Z,97823.28
2018-07-02T12:54:08.771Z,97821.91
2018-07-02T12:56:37.943Z,97826.16
2018-07-02T12:59:06.709Z,97817.77
2018-07-02T13:01:35.488Z,97818.00
2018-07-02T13:04:04.110Z,97816.48
2018-07-02T13:06:32.920Z,97816.98
2018-07-02T13:09:02.210Z,97812.73
2018-07-02T13:11:31.005Z,97801.46
2018-07-02T13:13:59.834Z,97801.59
2018-07-02T13:16:28.933Z,97806.55
2018-07-02T13:18:57.584Z,97800.06
2018-07-02T13:21:26.385Z,97799.61
2018-07-02T13:23:55.778Z,97799.59
2018-07-02T13:26:24.595Z,97794.66
2018-07-02T13:28:53.294Z,97801.12
2018-07-02T13:31:23.254Z,97799.58
2018-07-02T13:33:51.969Z,97794.25
2018-07-02T13:36:20.982Z,97793.72
2018-07-02T13:38:50.329Z,97799.73
2018-07-02T13:41:20.010Z,97794.96
2018-07-02T13:43:49.008Z,97792.13
2018-07-02T13:46:18.348Z,97788.36
2018-07-02T13:48:47.009Z,97785.28
2018-07-02T13:51:16.215Z,97782.77
2018-07-02T13:53:44.900Z,97775.37
2018-07-02T13:56:14.368Z,97770.44
2018-07-02T13:58:42.952Z,97775.55
2018-07-02T14:01:11.979Z,97774.76
2018-07-02T14:03:40.875Z,97767.46
2018-07-02T14:06:09.643Z,97766.42
2018-07-02T14:08:38.681Z,97766.81
2018-07-02T14:11:07.797Z,97768.61
2018-07-02T14:13:36.524Z,97770.91
2018-07-02T14:16:05.377Z,97773.17
2018-07-02T14:18:34.284Z,97764.40
2018-07-02T14:21:04.079Z,97765.94
2018-07-02T14:23:33.638Z,97759.22
2018-07-02T14:26:02.490Z,97760.77
2018-07-02T14:28:31.334Z,97759.88
2018-07-02T14:31:00.880Z,97764.42
2018-07-02T14:33:29.604Z,97764.55
2018-07-02T14:35:58.313Z,97754.48
2018-07-02T14:38:27.293Z,97758.00
2018-07-02T14:40:56.149Z,97768.17
2018-07-02T14:43:25.034Z,97757.21
2018-07-02T14:45:54.606Z,97763.44
2018-07-02T14:48:23.538Z,97762.84
2018-07-02T14:50:52.505Z,97761.85
2018-07-02T14:53:21.412Z,97762.19
2018-07-02T14:55:50.590Z,97760.66
2018-07-02T14:58:19.446Z,97758.06
2018-07-02T15:00:48.379Z,97763.39
2018-07-02T15:03:17.229Z,97754.38
2018-07-02T15:05:45.941Z,97758.12
2018-07-02T15:08:14.703Z,97754.38
2018-07-02T15:10:43.550Z,97754.22
2018-07-02T15:13:12.808Z,97758.39
2018-07-02T15:15:41.772Z,97756.67
2018-07-02T15:18:10.491Z,97746.94
2018-07-02T15:20:39.223Z,97750.02
2018-07-02T15:23:08.089Z,97750.39
2018-07-02T15:25:36.944Z,97746.63
2018-07-02T15:28:06.828Z,97748.80
2018-07-02T15:30:35.788Z,97740.77
2018-07-02T15:33:06.553Z,97742.75
2018-07-02T15:35:35.582Z,97741.66
2018-07-02T15:38:04.803Z,97743.15
2018-07-02T15:40:34.310Z,97745.09
2018-07-02T15:43:03.492Z,97743.64
2018-07-02T15:45:32.204Z,97734.94
2018-07-02T15:48:01.323Z,97736.70
2018-07-02T15:50:30.227Z,97734.74
2018-07-02T15:52:59.275Z,97731.42
2018-07-02T15:55:28.010Z,97731.95
2018-07-02T15:57:56.709Z,97732.26
2018-07-02T16:00:26.404Z,97730.61
2018-07-02T16:02:55.148Z,97730.67
2018-07-02T16:05:24.618Z,97734.70
2018-07-02T16:07:53.583Z,97727.40
2018-07-02T16:10:23.672Z,97727.20
2018-07-02T16:12:52.440Z,97731.53
2018-07-02T16:15:21.362Z,97728.85
2018-07-02T16:17:50.521Z,97730.33
2018-07-02T16:20:19.270Z,97732.61
2018-07-02T16:22:48.105Z,97729.55
2018-07-02T16:25:18.037Z,97727.03
2018-07-02T16:27:46.889Z,97725.33
2018-07-02T16:30:16.224Z,97725.76
2018-07-02T16:32:44.979Z,97722.22
2018-07-02T16:35:13.948Z,97721.67
2018-07-02T16:37:42.619Z,97717.68
2018-07-02T16:40:11.525Z,97717.23
2018-07-02T16:42:41.326Z,97711.67
2018-07-02T16:45:11.134Z,97723.80
2018-07-02T16:47:40.079Z,97728.25
2018-07-02T16:50:08.989Z,97717.00
2018-07-02T16:52:37.888Z,97714.25
2018-07-02T16:55:06.645Z,97715.69
2018-07-02T16:57:35.565Z,97719.12
2018-07-02T17:00:04.889Z,97717.14
2018-07-02T17:02:33.546Z,97715.37
2018-07-02T17:05:02.562Z,97718.33
2018-07-02T17:07:31.790Z,97722.86
2018-07-02T17:10:01.080Z,97722.77
2018-07-02T17:12:30.230Z,97722.10
2018-07-02T17:14:59.581Z,97721.45
2018-07-02T17:17:28.686Z,97727.83
2018-07-02T17:19:57.616Z,97728.33
2018-07-02T17:22:26.406Z,97729.63
2018-07-02T17:24:55.381Z,97731.66
2018-07-02T17:27:24.466Z,97732.45
2018-07-02T17:29:53.215Z,97732.88
2018-07-02T17:32:22.066Z,97735.67
2018-07-02T17:34:51.544Z,97737.28
2018-07-02T17:37:20.485Z,97737.77
2018-07-02T17:39:49.827Z,97737.67
2018-07-02T17:42:19.041Z,97739.33
2018-07-02T17:44:48.130Z,97732.45
2018-07-02T17:47:17.112Z,97736.66
2018-07-02T17:49:45.921Z,97739.28
2018-07-02T17:52:14.886Z,97743.61
2018-07-02T17:54:44.239Z,97737.84
2018-07-02T17:57:13.090Z,97741.79
2018-07-02T17:59:41.916Z,97743.55
2018-07-02T18:02:10.912Z,97738.81
2018-07-02T18:04:40.187Z,97742.80
2018-07-02T18:07:09.106Z,97736.13
2018-07-02T18:09:37.934Z,97734.98
2018-07-02T18:12:06.812Z,97736.84
2018-07-02T18:14:35.859Z,97740.64
2018-07-02T18:17:04.655Z,97737.75
2018-07-02T18:19:33.349Z,97741.75
2018-07-02T18:22:02.691Z,97745.58
2018-07-02T18:24:32.012Z,97745.87
2018-07-02T18:27:01.073Z,97744.11
2018-07-02T18:29:30.490Z,97746.92
2018-07-02T18:31:59.579Z,97746.79
2018-07-02T18:34:28.532Z,97754.55
2018-07-02T18:36:57.457Z,97754.16
2018-07-02T18:39:26.349Z,97755.02
2018-07-02T18:41:55.451Z,97753.49
2018-07-02T18:44:25.800Z,97755.31
2018-07-02T18:46:55.222Z,97756.72
2018-07-02T18:49:24.230Z,97756.38
2018-07-02T18:51:53.309Z,97755.03
2018-07-02T18:54:22.559Z,97757.60
2018-07-02T18:56:52.715Z,97756.05
2018-07-02T18:59:21.716Z,97752.13
2018-07-02T19:01:51.664Z,97752.53
2018-07-02T19:04:20.639Z,97754.73
2018-07-02T19:06:49.625Z,97759.29
2018-07-02T19:09:18.568Z,97767.75
2018-07-02T19:11:47.775Z,97766.34
2018-07-02T19:14:16.632Z,97767.13
2018-07-02T19:16:45.600Z,97768.30
2018-07-02T19:19:14.615Z,97779.30
2018-07-02T19:21:43.360Z,97776.67
2018-07-02T19:24:12.385Z,97776.64
2018-07-02T19:26:41.421Z,97775.37
2018-07-02T19:29:10.549Z,97779.29
2018-07-02T19:31:40.429Z,97779.83
2018-07-02T19:34:09.294Z,97785.30
2018-07-02T19:36:39.424Z,97784.84
2018-07-02T19:39:11.890Z,97789.30
2018-07-02T19:41:40.759Z,97792.78
2018-07-02T19:44:10.035Z,97800.59
2018-07-02T19:46:56.951Z,97801.73
2018-07-02T19:49:26.150Z,97805.73
2018-07-02T19:51:55.225Z,97815.70
2018-07-02T19:54:24.285Z,97819.89
2018-07-02T19:56:53.564Z,97823.91
2018-07-02T19:59:22.868Z,97823.84
2018-07-02T20:01:52.189Z,97836.92
2018-07-02T20:04:21.627Z,97834.91
2018-07-02T20:06:51.009Z,97838.55
2018-07-02T20:09:19.772Z,97844.37
2018-07-02T20:11:48.605Z,97849.44
2018-07-02T20:14:17.307Z,97852.80
2018-07-02T20:16:46.622Z,97843.05
2018-07-02T20:19:15.660Z,97846.52
2018-07-02T20:21:44.947Z,97848.73
2018-07-02T20:24:14.411Z,97858.70
2018-07-02T20:26:43.431Z,97864.92
2018-07-02T20:29:12.660Z,97868.41
2018-07-02T20:31:41.815Z,97866.49
2018-07-02T20:34:10.976Z,97865.02
2018-07-02T20:36:40.236Z,97871.02
2018-07-02T20:39:11.310Z,97875.59
2018-07-02T20:41:40.228Z,97886.59
2018-07-02T20:44:09.896Z,97885.11
2018-07-02T20:46:39.168Z,97889.73
2018-07-02T20:49:08.284Z,97897.30
2018-07-02T20:51:37.141Z,97897.02
2018-07-02T20:54:06.758Z,97901.88
2018-07-02T20:56:35.890Z,97899.56
2018-07-02T20:59:05.057Z,97902.30
2018-07-02T21:01:34.727Z,97908.72
2018-07-02T21:04:04.232Z,97904.61
2018-07-02T21:06:33.357Z,97908.52
2018-07-02T21:09:02.254Z,97908.32
2018-07-02T21:11:31.190Z,97910.60
2018-07-02T21:14:00.355Z,97908.50
2018-07-02T21:16:29.322Z,97912.23
2018-07-02T21:18:58.982Z,97915.25
2018-07-02T21:21:28.192Z,97909.56
2018-07-02T21:23:57.351Z,97914.80
2018-07-02T21:26:26.197Z,97920.18
2018-07-02T21:28:54.943Z,97919.41
2018-07-02T21:31:23.691Z,97920.99
2018-07-02T21:33:52.548Z,97924.09
2018-07-02T21:36:21.560Z,97919.91
2018-07-02T21:38:50.508Z,97916.73
2018-07-02T21:41:20.150Z,97912.23
2018-07-02T21:43:49.042Z,97911.72
2018-07-02T21:46:18.680Z,97917.95
2018-07-02T21:48:47.934Z,97922.02
2018-07-02T21:51:16.587Z,97928.98
2018-07-02T21:53:45.476Z,97921.66
2018-07-02T21:56:15.026Z,97918.41
2018-07-02T21:58:43.830Z,97918.20
2018-07-02T22:01:13.602Z,97919.63
2018-07-02T22:03:42.557Z,97923.60
2018-07-02T22:06:11.300Z,97915.80
2018-07-02T22:08:40.422Z,97924.75
2018-07-02T22:11:09.397Z,97912.56
2018-07-02T22:13:38.011Z,97919.08
2018-07-02T22:16:07.061Z,97916.11
2018-07-02T22:18:36.126Z,97918.63
2018-07-02T22:21:04.962Z,97915.83
2018-07-02T22:23:33.760Z,97914.93
2018-07-02T22:26:03.136Z,97912.31
2018-07-02T22:28:31.915Z,97913.68
2018-07-02T22:31:00.716Z,97908.48
2018-07-02T22:33:29.771Z,97914.73
2018-07-02T22:35:58.972Z,97914.85
2018-07-02T22:38:27.807Z,97918.16
2018-07-02T22:40:56.998Z,97912.83
2018-07-02T22:43:26.620Z,97909.77
2018-07-02T22:45:55.836Z,97907.16
2018-07-02T22:48:25.075Z,97914.57
2018-07-02T22:50:53.798Z,97912.75
2018-07-02T22:53:22.442Z,97912.87
2018-07-02T22:56:03.360Z,97912.06
2018-07-02T22:58:32.131Z,97904.41
2018-07-02T23:01:01.421Z,97912.74
2018-07-02T23:03:30.112Z,97918.42
2018-07-02T23:05:58.920Z,97912.62
2018-07-02T23:08:28.686Z,97912.27
2018-07-02T23:10:57.626Z,97911.78
2018-07-02T23:13:26.667Z,97908.39
2018-07-02T23:16:00.550Z,97907.59
2018-07-02T23:18:29.683Z,97914.05
2018-07-02T23:20:58.592Z,97906.32
2018-07-02T23:23:27.570Z,97908.23
2018-07-02T23:25:57.043Z,97906.98
2018-07-02T23:28:25.933Z,97904.45
2018-07-02T23:30:54.680Z,97906.27
2018-07-02T23:33:23.688Z,97903.75
2018-07-02T23:35:52.620Z,97895.80
2018-07-02T23:38:21.421Z,97896.67
2018-07-02T23:40:50.347Z,97897.56
2018-07-02T23:43:19.110Z,97892.83
2018-07-02T23:45:47.951Z,97896.74
2018-07-02T23:48:18.147Z,97893.12
2018-07-02T23:50:46.936Z,97892.92
2018-07-02T23:53:16.481Z,97896.35
2018-07-02T23:55:45.296Z,97905.87
2018-07-02T23:58:13.997Z,97897.87
